Tiempo atmosférico en la estación meteorológica de Maspalomas, C. Insular Turismo, Las Palmas (45 m.)



Fecha
DESCASC
Temp. máxima en grados centígrados (hora)
DESCASC
Temp. mínima en grados centígrados (hora)
DESCASC
Temp. media en grados centígrados
DESCASC
Racha de viento máxima en m/sg (hora)
DESCASC
Velocidad máxima media en intervalos de 10 minutos(hora)
DESCASC
Precipitaciones diarias en mm
DESCASC
Precipitaciones de 00:00 a 06:00 en mm
DESCASC
Precipitaciones de 06:00 a 12:00 en mm
DESCASC
Precipitaciones de 12:00 a 18:00 en mm
DESCASC
Precipitaciones de 18:00 a 24:00 en mm
DESCASC
29-10-2020 25.3 (14:30) 20.6 (07:30) 22.9 7.22 (14:00) 4.17 (13:50) 0 0 0 0 0
28-10-2020 24.8 (15:10) 20.9 (06:50) 22.8 7.5 (09:20) 3.61 (09:40) 0 0 0 0 0
27-10-2020 25.9 (15:30) 19.6 (00:00) 22.8 8.61 (16:10) 4.72 (13:20) 0 0 0 0 0
26-10-2020 25.7 (14:30) 20.1 (00:00) 22.9 7.22 (23:59) 4.44 (11:40) 0 0 0 0 0
25-10-2020 26 (11:50) 19.2 (00:00) 22.6 6.67 (12:30) 4.72 (12:50) 0 0 0 0 0
24-10-2020 24.9 (16:10) 18.2 (00:00) 21.6 12.78 (13:30) 5.83 (13:30) 0 0 0 0 0
23-10-2020 24.2 (13:40) 18.4 (00:00) 21.3 12.22 (16:00) 5.83 (22:30) 0 0 0 0 0
22-10-2020 25 (15:40) 19.2 (00:00) 22.1 9.72 (16:20) 5.83 (16:00) 0.2 0 0.2 0 0
21-10-2020 25 (13:40) 20.7 (00:00) 22.9 7.5 (13:10) 3.89 (12:30) 1.2 0 0 0.2 1
20-10-2020 27.8 (13:20) 22.2 (00:00) 25 16.67 (12:20) 8.06 (15:20) 0 0 0 0 0
19-10-2020 25.9 (14:40) 20.1 (00:00) 23 10.28 (14:10) 6.67 (15:00) 0 0 0 0 0
18-10-2020 23.4 (16:10) 20.1 (00:00) 21.8 6.67 (19:20) 3.61 (13:30) 0 0 0 0 0
17-10-2020 23.3 (11:30) 21 (00:00) 22.1 8.06 (00:40) 4.72 (12:30) 0 0 0 0 0
16-10-2020 23.9 (11:10) 21.1 (00:00) 22.5 11.67 (14:20) 6.11 (15:20) 0 0 0 0 0
15-10-2020 24.1 (11:10) 20.9 (00:00) 22.5 12.5 (12:40) 7.78 (12:40) 0 0 0 0 0
14-10-2020 26.8 (17:40) 21.3 (00:00) 24 11.39 (15:30) 6.39 (14:30) 0 0 0 0 0
13-10-2020 30.2 (17:20) 24 (00:00) 27.1 11.11 (13:20) 6.94 (17:50) 0 0 0 0 0
12-10-2020 35.7 (16:10) 21.1 (00:00) 28.4 10 (11:40) 5.28 (10:20) 0 0 0 0 0
11-10-2020 28 (16:40) 21.1 (00:00) 24.6 5.56 (15:20) 3.33 (15:20) 0 0 0 0 0
10-10-2020 27.1 (16:10) 21.9 (00:00) 24.5 6.67 (13:20) 4.17 (13:20) 0 0 0 0 0
09-10-2020 27.5 (15:20) 21.6 (00:00) 24.6 7.5 (16:00) 4.72 (16:30) 0 0 0 0 0
08-10-2020 28.4 (16:10) 21.4 (00:00) 24.9 9.72 (13:50) 5 (15:00) 0 0 0 0 0
07-10-2020 27 (17:50) 21.3 (00:00) 24.1 6.11 (15:10) 3.61 (15:00) 0 0 0 0 0
06-10-2020 24.2 (13:50) 21.5 (00:00) 22.9 9.17 (14:30) 4.17 (06:10) 0 0 0 0 0
05-10-2020 26.4 (15:40) 21.3 (00:00) 23.8 13.33 (12:50) 6.39 (14:00) 0 0 0 0 0
04-10-2020 27 (15:20) 21.3 (00:00) 24.1 11.11 (12:20) 5 (12:20) 1.8 0 1.8 0 0
03-10-2020 27.5 (16:20) 20.8 (00:00) 24.1 7.78 (16:40) 5 (14:40) 0 0 0 0 0
02-10-2020 27.3 (14:10) 21 (00:00) 24.1 8.61 (14:20) 5.28 (14:30) 0 0 0 0 0
01-10-2020 27.2 (15:40) 21.7 (00:00) 24.5 7.5 (18:20) 4.17 (15:20) 0 0 0 0 0

Gráficas

Temp. máximas Temp. mínimas Temp. medias Precipitaciones Rachas de viento máximas Velocidades máximas media en intervalos de 10 minutos

Datos horarios

Fecha y hora oficial Temperatura (ºC) Velocidad del viento (km/h) Dirección del viento Racha (km/h) Dirección de racha Precipitación (mm) Presión (hPa) Tendencia (hPa) Humedad (%)
2020-10-30 23:00:00 26.5 5 Nordeste 16 Nordeste 0 -- -- 28
2020-10-30 22:00:00 23 9 Este 27 Este 0 -- -- 59
2020-10-30 21:00:00 23.1 15 Este 29 Este 0 -- -- 69
2020-10-30 20:00:00 22.7 4 Sudeste 10 Este 0 -- -- 64
2020-10-30 19:00:00 23.1 4 Sudoeste 9 Sudoeste 0 -- -- 68
2020-10-30 18:00:00 24.3 6 Oeste 19 Este 0 -- -- 56
2020-10-30 17:00:00 24.6 12 Este 24 Este 0 -- -- 51
2020-10-30 16:00:00 24.5 12 Sudeste 20 Este 0 -- -- 54
2020-10-30 15:00:00 26.1 6 Sur 19 Sudoeste 0 -- -- 59
2020-10-30 14:00:00 25.8 8 Sudoeste 18 Sudoeste 0 -- -- 62
2020-10-30 13:00:00 25.3 9 Sudoeste 17 Sudoeste 0 -- -- 64
2020-10-30 12:00:00 24 7 Sudeste 15 Sudeste 0 -- -- 66
2020-10-30 11:00:00 23.3 9 Sudeste 14 Sudeste 0 -- -- 67
2020-10-30 10:00:00 -- -- -- -- -- -- -- -- --
2020-10-30 09:00:00 21.4 5 Noroeste 8 Noroeste 0 -- -- 70
2020-10-30 08:00:00 19.4 4 Norte 12 Norte 0 -- -- 75
2020-10-30 07:00:00 19 5 Norte 12 Norte 0 -- -- 77
2020-10-30 06:00:00 19.2 8 Norte 13 Norte 0 -- -- 76
2020-10-30 05:00:00 19.5 5 Norte 13 Norte 0 -- -- 76
2020-10-30 04:00:00 19.8 6 Norte 13 Norte 0 -- -- 75
2020-10-30 03:00:00 19.9 5 Norte 11 Noroeste 0 -- -- 75
2020-10-30 02:00:00 20.2 4 Noroeste 10 Noroeste 0 -- -- 74
2020-10-30 01:00:00 20.3 5 Norte 10 Norte 0 -- -- 73
2020-10-30 00:00:00 20.7 6 Noroeste 8 Norte 0 -- -- 73
2020-10-29 23:00:00 21 0 Calma 6 Norte 0 -- -- 73
2020-10-29 22:00:00 21.2 4 Noroeste 7 Oeste 0 -- -- 74
2020-10-29 21:00:00 21.3 4 Sudoeste 8 Sudoeste 0 -- -- 73
2020-10-29 20:00:00 21.7 3 Sudoeste 9 Oeste 0 -- -- 70
2020-10-29 19:00:00 22.1 6 Sudoeste 13 Sudoeste 0 -- -- 68
2020-10-29 18:00:00 22.9 8 Sudoeste 17 Sudoeste 0 -- -- 65
2020-10-29 17:00:00 24.3 9 Sudoeste 22 Sur 0 -- -- 60
2020-10-29 16:00:00 24.7 13 Sudoeste 21 Sur 0 -- -- 58
2020-10-29 15:00:00 25.3 9 Sur 25 Sur 0 -- -- 57
2020-10-29 14:00:00 25.2 15 Sudoeste 26 Sudoeste 0 -- -- 57
2020-10-29 13:00:00 25.2 14 Sudoeste 25 Sudoeste 0 -- -- 55
2020-10-29 12:00:00 24.6 11 Oeste 22 Sur 0 -- -- 55
2020-10-29 11:00:00 24.5 12 Sur 24 Sudoeste 0 -- -- 54
2020-10-29 10:00:00 23.1 12 Sudeste 18 Sudeste 0 -- -- 57
2020-10-29 09:00:00 22.3 3 Este 12 Norte 0 -- -- 59
2020-10-29 08:00:00 20.7 5 Norte 10 Norte 0 -- -- 61
2020-10-29 07:00:00 20.8 5 Este 11 Este 0 -- -- 67
2020-10-29 06:00:00 21.3 2 Este 11 Este 0 -- -- 62
2020-10-29 05:00:00 21.3 6 Este 10 Este 0 -- -- 62
2020-10-29 04:00:00 21 4 Este 13 Nordeste 0 -- -- 62
2020-10-29 03:00:00 21.3 6 Este 10 Este 0 -- -- 62
2020-10-29 02:00:00 21.4 3 Nordeste 19 Este 0 -- -- 61
2020-10-29 01:00:00 21.8 4 Este 14 Este 0 -- -- 59
2020-10-29 00:00:00 21.8 6 Este 12 Este 0 -- -- 61
2020-10-28 23:00:00 21.8 5 Nordeste 13 Este 0 -- -- 62
2020-10-28 22:00:00 21.8 6 Nordeste 19 Este 0 -- -- 60
2020-10-28 21:00:00 22.1 8 Este 17 Este 0 -- -- 58
2020-10-28 20:00:00 22.3 5 Oeste 14 Sudoeste 0 -- -- 65
2020-10-28 19:00:00 22.3 6 Sudoeste 15 Sudoeste 0 -- -- 64
2020-10-28 18:00:00 22.8 10 Sudoeste 17 Sudoeste 0 -- -- 62
2020-10-28 17:00:00 23.8 10 Sudoeste 21 Sudoeste 0 -- -- 58
2020-10-28 16:00:00 24.2 11 Sudoeste 20 Sudoeste 0 -- -- 56
2020-10-28 15:00:00 24.5 9 Sudoeste 21 Oeste 0 -- -- 53
2020-10-28 14:00:00 24 9 Sudoeste 22 Sudoeste 0 -- -- 56
2020-10-28 13:00:00 23.9 9 Sudoeste 22 Sudoeste 0 -- -- 57
2020-10-28 12:00:00 23.9 10 Sudoeste 20 Norte 0 -- -- 56
2020-10-28 11:00:00 23.3 4 Oeste 14 Norte 0 -- -- 56
2020-10-28 10:00:00 22 4 Este 27 Este 0 -- -- 61
2020-10-28 09:00:00 22.7 7 Este 17 Nordeste 0 -- -- 57
2020-10-28 08:00:00 21.9 9 Este 19 Nordeste 0 -- -- 55
2020-10-28 07:00:00 20.9 6 Nordeste 18 Nordeste 0 -- -- 60
2020-10-28 06:00:00 21 8 Nordeste 18 Nordeste 0 -- -- 59
2020-10-28 05:00:00 21.1 8 Nordeste 20 Este 0 -- -- 58
2020-10-28 04:00:00 21.4 6 Este 17 Este 0 -- -- 59
2020-10-28 03:00:00 21.3 9 Este 18 Este 0 -- -- 61
2020-10-28 02:00:00 21.6 8 Nordeste 21 Este 0 -- -- 57
2020-10-28 01:00:00 21.7 7 Este 22 Este 0 -- -- 59
2020-10-28 00:00:00 21.8 8 Este 21 Nordeste 0 -- -- 61
2020-10-27 23:00:00 21.8 12 Nordeste 28 Nordeste 0 -- -- 64
2020-10-27 22:00:00 21.9 8 Este 24 Nordeste 0 -- -- 63
2020-10-27 21:00:00 22 11 Este 27 Nordeste 0 -- -- 66
2020-10-27 20:00:00 22.4 8 Este 26 Nordeste 0 -- -- 64
2020-10-27 19:00:00 22.5 13 Este 25 Sudeste 0 -- -- 64
2020-10-27 18:00:00 23.3 10 Este 20 Nordeste 0 -- -- 60
2020-10-27 17:00:00 24.7 6 Sudoeste 31 Este 0 -- -- 59
2020-10-27 16:00:00 24.4 5 Nordeste 22 Este 0 -- -- 61
2020-10-27 15:00:00 25.3 9 Sudoeste 23 Sudoeste 0 -- -- 56
2020-10-27 14:00:00 25.6 12 Sudoeste 29 Oeste 0 -- -- 56
2020-10-27 13:00:00 25.1 14 Oeste 26 Oeste 0 -- -- 57
2020-10-27 12:00:00 25.3 11 Sudoeste 21 Sudoeste 0 -- -- 56
2020-10-27 11:00:00 24.2 10 Oeste 19 Oeste 0 -- -- 59
2020-10-27 10:00:00 23.4 3 Norte 10 Sudeste 0 -- -- 60
2020-10-27 09:00:00 23 3 Este 6 Noroeste 0 -- -- 64
2020-10-27 08:00:00 20.5 4 Norte 9 Norte 0 -- -- 72
2020-10-27 07:00:00 19.6 3 Oeste 10 Norte 0 -- -- 73
2020-10-27 06:00:00 20.5 4 Este 11 Este 0 -- -- 71
2020-10-27 05:00:00 20.3 6 Nordeste 18 Este 0 -- -- 69
2020-10-27 04:00:00 20.8 7 Este 16 Este 0 -- -- 68
2020-10-27 03:00:00 20.7 4 Nordeste 17 Nordeste 0 -- -- 68
2020-10-27 02:00:00 21.1 6 Nordeste 21 Este 0 -- -- 64
2020-10-27 01:00:00 21.8 10 Nordeste 28 Nordeste 0 -- -- 61
2020-10-27 00:00:00 22.2 10 Nordeste 26 Nordeste 0 -- -- 61
2020-10-26 23:00:00 21.7 7 Nordeste 24 Este 0 -- -- 63
2020-10-26 22:00:00 22 5 Nordeste 13 Este 0 -- -- 65
2020-10-26 21:00:00 21.9 0 Calma 9 Noroeste 0 -- -- 73
2020-10-26 20:00:00 22.1 5 Oeste 10 Oeste 0 -- -- 72
2020-10-26 19:00:00 22.6 5 Sudoeste 11 Sudoeste 0 -- -- 71
2020-10-26 18:00:00 23.5 6 Oeste 21 Sudoeste 0 -- -- 66
2020-10-26 17:00:00 24.4 10 Oeste 21 Sudoeste 0 -- -- 64
2020-10-26 16:00:00 25.3 10 Sudoeste 23 Oeste 0 -- -- 61
2020-10-26 15:00:00 25.6 13 Sudoeste 20 Sudoeste 0 -- -- 61
2020-10-26 14:00:00 25.3 13 Sudoeste 24 Oeste 0 -- -- 62
2020-10-26 13:00:00 25.6 15 Sudoeste 25 Sudoeste 0 -- -- 60
2020-10-26 12:00:00 25.3 13 Sudoeste 26 Oeste 0 -- -- 61
2020-10-26 11:00:00 25.1 8 Sudoeste 14 Sudoeste 0 -- -- 60
2020-10-26 10:00:00 23.9 4 Sur 15 Este 0 -- -- 61
2020-10-26 09:00:00 22.4 7 Este 11 Este 0 -- -- 65
2020-10-26 08:00:00 20.7 6 Nordeste 12 Nordeste 0 -- -- 66
2020-10-26 07:00:00 20.2 4 Nordeste 13 Nordeste 0 -- -- 67
2020-10-26 06:00:00 20.5 5 Este 15 Nordeste 0 -- -- 66
2020-10-26 05:00:00 21 6 Nordeste 18 Este 0 -- -- 65
2020-10-26 04:00:00 21.1 7 Este 21 Nordeste 0 -- -- 66
2020-10-26 03:00:00 20.7 4 Nordeste 15 Nordeste 0 -- -- 65
2020-10-26 02:00:00 20.6 4 Este 12 Este 0 -- -- 67
2020-10-26 01:00:00 20.7 5 Este 17 Este 0 -- -- 67
2020-10-26 00:00:00 21 8 Nordeste 15 Este 0 -- -- 67
2020-10-25 23:00:00 21.3 4 Nordeste 17 Este 0 -- -- 66
2020-10-25 22:00:00 21.5 6 Nordeste 19 Nordeste 0 -- -- 66
2020-10-25 21:00:00 21.8 4 Este 16 Este 0 -- -- 64
2020-10-25 20:00:00 22.1 6 Nordeste 21 Este 0 -- -- 63
2020-10-25 19:00:00 22.6 8 Este 15 Este 0 -- -- 63
2020-10-25 18:00:00 23.2 7 Oeste 18 Sudoeste 0 -- -- 67
2020-10-25 17:00:00 24.1 10 Sudoeste 22 Oeste 0 -- -- 64
2020-10-25 16:00:00 25.7 12 Sudoeste 20 Sudoeste 0 -- -- 60
2020-10-25 15:00:00 24.9 9 Sudoeste 19 Sudoeste 0 -- -- 61
2020-10-25 14:00:00 25 8 Sudoeste 23 Oeste 0 -- -- 62
2020-10-25 13:00:00 25 14 Oeste 24 Sudoeste 0 -- -- 61
2020-10-25 12:00:00 25.6 13 Sudoeste 21 Sudoeste 0 -- -- 58
2020-10-25 11:00:00 25.2 10 Sudoeste 21 Sudoeste 0 -- -- 59
2020-10-25 10:00:00 23.4 6 Noroeste 16 Este 0 -- -- 61
2020-10-25 09:00:00 22.4 6 Nordeste 15 Nordeste 0 -- -- 58
2020-10-25 08:00:00 19.8 4 Nordeste 10 Nordeste 0 -- -- 71
2020-10-25 07:00:00 19.2 3 Norte 9 Norte 0 -- -- 72
2020-10-25 06:00:00 19.4 3 Norte 13 Nordeste 0 -- -- 71
2020-10-25 05:00:00 19.8 5 Nordeste 15 Este 0 -- -- 66
2020-10-25 04:00:00 19.9 6 Nordeste 14 Nordeste 0 -- -- 65
2020-10-25 03:00:00 20.1 6 Nordeste 13 Nordeste 0 -- -- 66
2020-10-25 02:00:00 20.4 5 Nordeste 10 Nordeste 0 -- -- 65
2020-10-25 01:00:00 20.7 0 Calma 12 Este 0 -- -- 65
2020-10-25 00:00:00 20.9 6 Nordeste 10 Nordeste 0 -- -- 66
2020-10-24 23:00:00 21.4 3 Este 17 Nordeste 0 -- -- 64
2020-10-24 22:00:00 21.7 9 Nordeste 20 Nordeste 0 -- -- 62
2020-10-24 21:00:00 22 6 Nordeste 13 Nordeste 0 -- -- 63
2020-10-24 20:00:00 22.4 4 Sur 12 Sudoeste 0 -- -- 63
2020-10-24 19:00:00 22.9 5 Sur 23 Este 0 -- -- 60
2020-10-24 18:00:00 24 10 Sudoeste 33 Este 0 -- -- 56
2020-10-24 17:00:00 24.5 11 Este 35 Este 0 -- -- 57
2020-10-24 16:00:00 24.7 13 Nordeste 37 Este 0 -- -- 51
2020-10-24 15:00:00 24.1 17 Este 43 Sudeste 0 -- -- 55
2020-10-24 14:00:00 23.7 21 Nordeste 46 Este 0 -- -- 55
2020-10-24 13:00:00 23.6 19 Este 40 Este 0 -- -- 57
2020-10-24 12:00:00 23.5 15 Nordeste 32 Este 0 -- -- 52
2020-10-24 11:00:00 21.8 5 Norte 12 Oeste 0 -- -- 55
2020-10-24 10:00:00 20.2 4 Noroeste 16 Este 0 -- -- 57
2020-10-24 09:00:00 18.5 7 Norte 13 Norte 0 -- -- 62
2020-10-24 08:00:00 18.3 6 Norte 18 Norte 0 -- -- 62
2020-10-24 07:00:00 18.2 6 Norte 13 Norte 0 -- -- 61
2020-10-24 06:00:00 18.6 7 Norte 20 Nordeste 0 -- -- 60
2020-10-24 05:00:00 18.8 7 Norte 32 Nordeste 0 -- -- 58
2020-10-24 04:00:00 20.4 10 Nordeste 27 Nordeste 0 -- -- 62
2020-10-24 03:00:00 20.6 15 Nordeste 33 Nordeste 0 -- -- 64
2020-10-24 02:00:00 20.7 15 Nordeste 33 Nordeste 0 -- -- 61
2020-10-24 01:00:00 20.8 17 Nordeste 37 Nordeste 0 -- -- 62
2020-10-24 00:00:00 20.8 14 Nordeste 37 Nordeste 0 -- -- 65
2020-10-23 23:00:00 20.9 18 Nordeste 42 Nordeste 0 -- -- 65
2020-10-23 22:00:00 21.1 17 Nordeste 33 Norte 0 -- -- 59
2020-10-23 21:00:00 21.3 12 Nordeste 32 Nordeste 0 -- -- 53
2020-10-23 20:00:00 21.8 14 Nordeste 29 Nordeste 0 -- -- 54
2020-10-23 19:00:00 22.6 15 Nordeste 33 Este 0 -- -- 52
2020-10-23 18:00:00 22.9 17 Nordeste 40 Este 0 -- -- 56
2020-10-23 17:00:00 23.2 14 Nordeste 44 Este 0 -- -- 57
2020-10-23 16:00:00 23.8 20 Este 44 Este 0 -- -- 57
2020-10-23 15:00:00 23.8 17 Este 41 Este 0 -- -- 56
2020-10-23 14:00:00 24 17 Este 42 Este 0 -- -- 54
2020-10-23 13:00:00 23.9 14 Este 36 Nordeste 0 -- -- 54
2020-10-23 12:00:00 23.7 16 Este 38 Nordeste 0 -- -- 52
2020-10-23 11:00:00 23 15 Nordeste 35 Nordeste 0 -- -- 53
2020-10-23 10:00:00 22.1 13 Nordeste 31 Nordeste 0 -- -- 51
2020-10-23 09:00:00 19.8 7 Nordeste 15 Nordeste 0 -- -- 52
2020-10-23 08:00:00 18.6 6 Norte 10 Norte 0 -- -- 55
2020-10-23 07:00:00 19 3 Norte 12 Norte 0 -- -- 56
2020-10-23 06:00:00 19 5 Norte 11 Este 0 -- -- 59
2020-10-23 05:00:00 19.5 3 Este 12 Nordeste 0 -- -- 59
2020-10-23 04:00:00 20.3 5 Nordeste 15 Este 0 -- -- 57
2020-10-23 03:00:00 20 0 Calma 9 Nordeste 0 -- -- 61
2020-10-23 02:00:00 20.6 5 Nordeste 17 Nordeste 0 -- -- 59
2020-10-23 01:00:00 20.9 12 Nordeste 28 Nordeste 0 -- -- 60
2020-10-23 00:00:00 21.1 9 Nordeste 22 Este 0 -- -- 61
2020-10-22 23:00:00 21.5 10 Nordeste 21 Nordeste 0 -- -- 57
2020-10-22 22:00:00 22.1 7 Este 18 Este 0 -- -- 54
2020-10-22 21:00:00 22.4 7 Este 18 Este 0 -- -- 57
2020-10-22 20:00:00 23 3 Sur 13 Este 0 -- -- 55
2020-10-22 19:00:00 23.2 8 Este 21 Este 0 -- -- 55
2020-10-22 18:00:00 23.6 10 Este 33 Este 0 -- -- 55
2020-10-22 17:00:00 24.4 14 Este 35 Este 0 -- -- 55
2020-10-22 16:00:00 24.3 21 Este 34 Este 0 -- -- 57
2020-10-22 15:00:00 24.4 14 Sudeste 27 Este 0 -- -- 53
2020-10-22 14:00:00 24.7 10 Sudeste 21 Sudeste 0 -- -- 55
2020-10-22 13:00:00 23.8 11 Sudeste 22 Sudeste 0 -- -- 60
2020-10-22 12:00:00 23.6 14 Sudeste 22 Sudeste 0.2 -- -- 66
2020-10-22 11:00:00 23.6 8 Sudeste 13 Este 0 -- -- 71
2020-10-22 10:00:00 21.3 5 Norte 10 Norte 0 -- -- 78
2020-10-22 09:00:00 19.7 6 Noroeste 9 Noroeste 0 -- -- 81
2020-10-22 08:00:00 19.2 3 Noroeste 9 Norte 0 -- -- 86
2020-10-22 07:00:00 19.9 4 Noroeste 9 Noroeste 0 -- -- 86
2020-10-22 06:00:00 20.2 6 Noroeste 10 Norte 0 -- -- 86
2020-10-22 05:00:00 20.2 4 Noroeste 10 Noroeste 0 -- -- 87
2020-10-22 04:00:00 20.1 3 Nordeste 6 Este 0 -- -- 86
2020-10-22 03:00:00 20.5 0 Calma 8 Nordeste 0 -- -- 84
2020-10-22 02:00:00 20.7 6 Este 12 Este 0 -- -- 84
2020-10-22 01:00:00 20.7 5 Sudeste 7 Sudeste 0 -- -- 86
2020-10-22 00:00:00 20.8 2 Este 8 Norte 0.2 -- -- 85
2020-10-21 23:00:00 20.9 4 Nordeste 10 Sudeste 0.8 -- -- 85
2020-10-21 22:00:00 21.4 6 Sudeste 10 Sudeste 0 -- -- 82
2020-10-21 21:00:00 21.9 6 Sur 14 Sur 0 -- -- 77
2020-10-21 20:00:00 22.1 7 Sudoeste 15 Sudoeste 0 -- -- 78
2020-10-21 19:00:00 22.6 7 Sudoeste 12 Oeste 0 -- -- 74
2020-10-21 18:00:00 22.8 5 Sudoeste 15 Oeste 0.2 -- -- 75
2020-10-21 17:00:00 23.1 9 Este 22 Este 0 -- -- 72
2020-10-21 16:00:00 23.9 10 Este 25 Este 0 -- -- 69
2020-10-21 15:00:00 24.3 10 Este 25 Este 0 -- -- 72
2020-10-21 14:00:00 24.7 9 Este 27 Este 0 -- -- 70
2020-10-21 13:00:00 24.2 13 Este 24 Este 0 -- -- 72
2020-10-21 12:00:00 23.7 11 Este 21 Sudeste 0 -- -- 72
2020-10-21 11:00:00 23.3 7 Este 15 Nordeste 0 -- -- 74
2020-10-21 10:00:00 23.5 5 Este 12 Nordeste 0 -- -- 72
2020-10-21 09:00:00 21.6 4 Norte 5 Norte 0 -- -- 75
2020-10-21 08:00:00 21.4 4 Noroeste 6 Oeste 0 -- -- 77
2020-10-21 07:00:00 21.5 0 Calma 7 Oeste 0 -- -- 79
2020-10-21 06:00:00 21.7 3 Noroeste 5 Noroeste 0 -- -- 80
2020-10-21 05:00:00 21.8 4 Noroeste 9 Oeste 0 -- -- 84
2020-10-21 04:00:00 22.2 2 Oeste 6 Noroeste 0 -- -- 83
2020-10-21 03:00:00 22.4 4 Oeste 7 Oeste 0 -- -- 85
2020-10-21 02:00:00 22.6 4 Sudoeste 9 Sudoeste 0 -- -- 85
2020-10-21 01:00:00 22.7 5 Sudoeste 8 Sudoeste 0 -- -- 85
2020-10-21 00:00:00 23.1 2 Norte 14 Este 0 -- -- 85
2020-10-20 23:00:00 23.1 6 Nordeste 13 Este 0 -- -- 84
2020-10-20 22:00:00 23.4 9 Este 21 Este 0 -- -- 83
2020-10-20 21:00:00 23.8 5 Este 22 Sudoeste 0 -- -- 81
2020-10-20 20:00:00 24.1 10 Oeste 29 Oeste 0 -- -- 80
2020-10-20 19:00:00 24.7 14 Oeste 32 Sudoeste 0 -- -- 83
2020-10-20 18:00:00 25.6 15 Oeste 37 Oeste 0 -- -- 80
2020-10-20 17:00:00 25.6 21 Oeste 44 Oeste 0 -- -- 78
2020-10-20 16:00:00 27.3 22 Oeste 46 Oeste 0 -- -- 69
2020-10-20 15:00:00 27.2 27 Oeste 46 Oeste 0 -- -- 67
2020-10-20 14:00:00 27.7 21 Oeste 47 Oeste 0 -- -- 62
2020-10-20 13:00:00 27.3 21 Oeste 60 Oeste 0 -- -- 60
2020-10-20 12:00:00 26.3 22 Oeste 44 Oeste 0 -- -- 67
2020-10-20 11:00:00 25.6 21 Oeste 35 Oeste 0 -- -- 68
2020-10-20 10:00:00 25.7 16 Oeste 30 Oeste 0 -- -- 62
2020-10-20 09:00:00 24.7 10 Oeste 23 Oeste 0 -- -- 60
2020-10-20 08:00:00 24.3 13 Oeste 28 Oeste 0 -- -- 62
2020-10-20 07:00:00 24 17 Oeste 30 Oeste 0 -- -- 65
2020-10-20 06:00:00 22.7 14 Oeste 26 Oeste 0 -- -- 76
2020-10-20 05:00:00 22.4 17 Oeste 35 Oeste 0 -- -- 83
2020-10-20 04:00:00 22.3 15 Oeste 25 Oeste 0 -- -- 86
2020-10-20 03:00:00 22.2 14 Oeste 22 Oeste 0 -- -- 89
2020-10-20 02:00:00 22.4 12 Oeste 19 Oeste 0 -- -- 90
2020-10-20 01:00:00 22.5 10 Oeste 18 Oeste 0 -- -- 90
2020-10-20 00:00:00 22.6 10 Oeste 17 Sudoeste 0 -- -- 89
2020-10-19 23:00:00 22.8 9 Oeste 21 Oeste 0 -- -- 88
2020-10-19 22:00:00 23 9 Oeste 24 Sudoeste 0 -- -- 87
2020-10-19 21:00:00 23.2 11 Sudoeste 21 Sudoeste 0 -- -- 84
2020-10-19 20:00:00 23.4 13 Sudoeste 22 Sudoeste 0 -- -- 84
2020-10-19 19:00:00 24.1 15 Sudoeste 26 Sudoeste 0 -- -- 80
2020-10-19 18:00:00 25.2 15 Oeste 29 Sudoeste 0 -- -- 75
2020-10-19 17:00:00 25.4 19 Sudoeste 34 Sudoeste 0 -- -- 74
2020-10-19 16:00:00 25.8 20 Sudoeste 36 Sudoeste 0 -- -- 72
2020-10-19 15:00:00 25.8 24 Sudoeste 37 Sudoeste 0 -- -- 70
2020-10-19 14:00:00 25.8 19 Sudoeste 35 Sudoeste 0 -- -- 70
2020-10-19 13:00:00 25.2 20 Sudoeste 36 Noroeste 0 -- -- 72
2020-10-19 12:00:00 24.9 18 Sudoeste 34 Oeste 0 -- -- 71
2020-10-19 11:00:00 24.1 15 Oeste 31 Oeste 0 -- -- 74
2020-10-19 10:00:00 23 16 Oeste 29 Oeste 0 -- -- 73
2020-10-19 09:00:00 21.3 9 Oeste 23 Oeste 0 -- -- 82
2020-10-19 08:00:00 20.6 13 Oeste 22 Oeste 0 -- -- 84
2020-10-19 07:00:00 20.3 8 Oeste 15 Oeste 0 -- -- 85
2020-10-19 06:00:00 20.2 6 Oeste 10 Oeste 0 -- -- 85
2020-10-19 05:00:00 20.1 6 Oeste 14 Oeste 0 -- -- 85
2020-10-19 04:00:00 20.2 8 Oeste 15 Oeste 0 -- -- 85
2020-10-19 03:00:00 20.1 10 Oeste 16 Oeste 0 -- -- 84
2020-10-19 02:00:00 20.2 8 Oeste 14 Oeste 0 -- -- 83
2020-10-19 01:00:00 20.3 7 Oeste 13 Oeste 0 -- -- 83
2020-10-19 00:00:00 20.5 6 Oeste 8 Oeste 0 -- -- 82
2020-10-18 23:00:00 20.7 5 Oeste 9 Oeste 0 -- -- 80
2020-10-18 22:00:00 21 8 Sudoeste 14 Sudoeste 0 -- -- 80
2020-10-18 21:00:00 21.2 9 Sudoeste 18 Sudoeste 0 -- -- 78
2020-10-18 20:00:00 21.6 11 Sudoeste 24 Sudoeste 0 -- -- 76
2020-10-18 19:00:00 22.3 9 Sudoeste 18 Sudoeste 0 -- -- 73
2020-10-18 18:00:00 22.5 10 Sudoeste 20 Sudoeste 0 -- -- 72
2020-10-18 17:00:00 22.7 10 Sudoeste 19 Sudoeste 0 -- -- 71
2020-10-18 16:00:00 23.3 10 Sur 19 Sur 0 -- -- 69
2020-10-18 15:00:00 22.9 9 Sur 19 Sudeste 0 -- -- 69
2020-10-18 14:00:00 21.8 12 Sudeste 22 Sudeste 0 -- -- 74
2020-10-18 13:00:00 22.9 9 Sur 22 Sudeste 0 -- -- 70
2020-10-18 12:00:00 22.3 9 Sudeste 17 Sudeste 0 -- -- 71
2020-10-18 11:00:00 21.4 5 Sudeste 10 Este 0 -- -- 76
2020-10-18 10:00:00 21.1 4 Noroeste 9 Oeste 0 -- -- 78
2020-10-18 09:00:00 20.7 0 Calma 4 Oeste 0 -- -- 78
2020-10-18 08:00:00 20.5 2 Sur 6 Sudeste 0 -- -- 79
2020-10-18 07:00:00 20.3 3 Nordeste 5 Este 0 -- -- 80
2020-10-18 06:00:00 20.1 3 Nordeste 8 Nordeste 0 -- -- 79
2020-10-18 05:00:00 20.5 4 Nordeste 10 Sudeste 0 -- -- 77
2020-10-18 04:00:00 20.7 4 Nordeste 9 Este 0 -- -- 76
2020-10-18 03:00:00 21 5 Nordeste 13 Este 0 -- -- 74
2020-10-18 02:00:00 21 7 Nordeste 13 Nordeste 0 -- -- 73
2020-10-18 01:00:00 21 5 Nordeste 17 Este 0 -- -- 74
2020-10-18 00:00:00 21.2 5 Este 16 Nordeste 0 -- -- 73
2020-10-17 23:00:00 21.5 6 Este 19 Este 0 -- -- 74
2020-10-17 22:00:00 21.7 7 Este 19 Este 0 -- -- 70
2020-10-17 21:00:00 21.9 8 Este 20 Este 0 -- -- 67
2020-10-17 20:00:00 22 8 Este 20 Sudeste 0 -- -- 69
2020-10-17 19:00:00 21.8 10 Este 19 Sudeste 0 -- -- 73
2020-10-17 18:00:00 22.1 9 Este 21 Este 0 -- -- 69
2020-10-17 17:00:00 21.7 10 Este 20 Este 0 -- -- 73
2020-10-17 16:00:00 22.1 10 Este 26 Sudeste 0 -- -- 71
2020-10-17 15:00:00 22.2 15 Este 25 Este 0 -- -- 71
2020-10-17 14:00:00 22.6 14 Este 27 Este 0 -- -- 71
2020-10-17 13:00:00 22.7 13 Este 28 Este 0 -- -- 70
2020-10-17 12:00:00 22.8 17 Este 28 Este 0 -- -- 71
2020-10-17 11:00:00 23.2 13 Este 27 Este 0 -- -- 66
2020-10-17 10:00:00 22.6 12 Este 24 Este 0 -- -- 67
2020-10-17 09:00:00 21.6 9 Este 21 Este 0 -- -- 70
2020-10-17 08:00:00 21.1 9 Este 24 Este 0 -- -- 72
2020-10-17 07:00:00 21 11 Nordeste 21 Este 0 -- -- 73
2020-10-17 06:00:00 21.2 10 Nordeste 25 Este 0 -- -- 72
2020-10-17 05:00:00 21.2 11 Este 24 Este 0 -- -- 73
2020-10-17 04:00:00 21.6 7 Este 22 Este 0 -- -- 72
2020-10-17 03:00:00 21.6 8 Este 24 Nordeste 0 -- -- 70
2020-10-17 02:00:00 21.7 9 Este 23 Este 0 -- -- 72
2020-10-17 01:00:00 21.7 10 Este 29 Este 0 -- -- 71
2020-10-17 00:00:00 22.1 10 Este 23 Este 0 -- -- 69
2020-10-16 23:00:00 22.3 8 Este 22 Este 0 -- -- 69
2020-10-16 22:00:00 22.4 10 Nordeste 24 Este 0 -- -- 68
2020-10-16 21:00:00 22.5 9 Este 24 Este 0 -- -- 70
2020-10-16 20:00:00 22.5 11 Nordeste 29 Este 0 -- -- 70
2020-10-16 19:00:00 22.7 13 Este 30 Este 0 -- -- 69
2020-10-16 18:00:00 23.2 14 Este 37 Este 0 -- -- 68
2020-10-16 17:00:00 23.1 21 Este 37 Este 0 -- -- 71
2020-10-16 16:00:00 23.3 19 Este 38 Este 0 -- -- 70
2020-10-16 15:00:00 23.4 21 Este 42 Este 0 -- -- 69
2020-10-16 14:00:00 23.5 17 Este 39 Este 0 -- -- 68
2020-10-16 13:00:00 23.3 18 Este 38 Este 0 -- -- 69
2020-10-16 12:00:00 23.2 18 Este 35 Este 0 -- -- 71
2020-10-16 11:00:00 23.6 14 Este 29 Este 0 -- -- 67
2020-10-16 10:00:00 23 10 Nordeste 23 Este 0 -- -- 67
2020-10-16 09:00:00 22 9 Este 19 Nordeste 0 -- -- 72
2020-10-16 08:00:00 21.3 8 Nordeste 16 Este 0 -- -- 73
2020-10-16 07:00:00 21.2 8 Este 20 Este 0 -- -- 77
2020-10-16 06:00:00 21.3 10 Nordeste 22 Este 0 -- -- 77
2020-10-16 05:00:00 21.7 10 Este 22 Nordeste 0 -- -- 75
2020-10-16 04:00:00 21.5 8 Este 22 Nordeste 0 -- -- 78
2020-10-16 03:00:00 21.6 10 Este 22 Este 0 -- -- 78
2020-10-16 02:00:00 21.7 11 Este 24 Este 0 -- -- 78
2020-10-16 01:00:00 21.8 10 Nordeste 26 Este 0 -- -- 77
2020-10-16 00:00:00 22.1 8 Este 16 Este 0 -- -- 75
2020-10-15 23:00:00 22 3 Oeste 11 Nordeste 0 -- -- 73
2020-10-15 22:00:00 22 6 Nordeste 17 Este 0 -- -- 73
2020-10-15 21:00:00 22.1 6 Nordeste 26 Este 0 -- -- 73
2020-10-15 20:00:00 22.2 12 Este 26 Este 0 -- -- 77
2020-10-15 19:00:00 22.1 15 Este 28 Este 0 -- -- 77
2020-10-15 18:00:00 22.6 13 Este 30 Este 0 -- -- 75
2020-10-15 17:00:00 23.1 16 Este 38 Este 0 -- -- 73
2020-10-15 16:00:00 23.1 18 Este 35 Este 0 -- -- 74
2020-10-15 15:00:00 23.3 20 Este 35 Este 0 -- -- 70
2020-10-15 14:00:00 23.5 21 Este 41 Este 0 -- -- 71
2020-10-15 13:00:00 23.7 21 Este 45 Este 0 -- -- 70
2020-10-15 12:00:00 23.8 21 Este 40 Este 0 -- -- 70
2020-10-15 11:00:00 23.9 17 Este 37 Este 0 -- -- 64
2020-10-15 10:00:00 23.3 8 Este 18 Este 0 -- -- 66
2020-10-15 09:00:00 21.7 8 Este 21 Este 0 -- -- 73
2020-10-15 08:00:00 21.3 7 Este 20 Nordeste 0 -- -- 73
2020-10-15 07:00:00 21 5 Este 29 Nordeste 0 -- -- 75
2020-10-15 06:00:00 21 14 Nordeste 28 Nordeste 0 -- -- 75
2020-10-15 05:00:00 21 14 Este 31 Este 0 -- -- 75
2020-10-15 04:00:00 21.1 10 Este 23 Nordeste 0 -- -- 76
2020-10-15 03:00:00 21.3 10 Este 26 Norte 0 -- -- 76
2020-10-15 02:00:00 22.2 9 Nordeste 19 Nordeste 0 -- -- 73
2020-10-15 01:00:00 22.3 8 Este 17 Nordeste 0 -- -- 72
2020-10-15 00:00:00 22.3 6 Este 14 Nordeste 0 -- -- 68
2020-10-14 23:00:00 22.5 5 Nordeste 11 Este 0 -- -- 61
2020-10-14 22:00:00 22.5 0 Calma 19 Este 0 -- -- 71
2020-10-14 21:00:00 23.2 4 Este 13 Este 0 -- -- 68
2020-10-14 20:00:00 23.5 4 Oeste 13 Sudoeste 0 -- -- 75
2020-10-14 19:00:00 24.4 7 Sudoeste 26 Sudoeste 0 -- -- 76
2020-10-14 18:00:00 26.2 15 Sudoeste 31 Oeste 0 -- -- 66
2020-10-14 17:00:00 25.5 17 Este 40 Este 0 -- -- 63
2020-10-14 16:00:00 25.2 19 Este 41 Este 0 -- -- 70
2020-10-14 15:00:00 24.4 19 Este 38 Este 0 -- -- 76
2020-10-14 14:00:00 24 20 Este 35 Este 0 -- -- 75
2020-10-14 13:00:00 23.8 18 Este 33 Este 0 -- -- 76
2020-10-14 12:00:00 24.1 13 Este 27 Este 0 -- -- 73
2020-10-14 11:00:00 23.5 11 Este 21 Este 0 -- -- 76
2020-10-14 10:00:00 22.9 9 Este 19 Este 0 -- -- 76
2020-10-14 09:00:00 21.7 8 Este 18 Nordeste 0 -- -- 82
2020-10-14 08:00:00 21.3 5 Este 22 Nordeste 0 -- -- 83
2020-10-14 07:00:00 21.5 11 Este 29 Este 0 -- -- 84
2020-10-14 06:00:00 21.9 11 Este 26 Este 0 -- -- 77
2020-10-14 05:00:00 22.1 13 Este 31 Nordeste 0 -- -- 76
2020-10-14 04:00:00 22.5 10 Este 35 Este 0 -- -- 68
2020-10-14 03:00:00 22.8 16 Este 37 Este 0 -- -- 70
2020-10-14 02:00:00 23.9 17 Este 31 Este 0 -- -- 59
2020-10-14 01:00:00 24.2 12 Nordeste 27 Nordeste 0 -- -- 46
2020-10-14 00:00:00 24.5 10 Nordeste 26 Nordeste 0 -- -- 44
2020-10-13 23:00:00 24.6 6 Este 29 Este 0 -- -- 50
2020-10-13 22:00:00 24.5 12 Este 31 Este 0 -- -- 54
2020-10-13 21:00:00 25.1 9 Oeste 24 Este 0 -- -- 74
2020-10-13 20:00:00 25 14 Este 34 Este 0 -- -- 71
2020-10-13 19:00:00 25.3 11 Este 31 Este 0 -- -- 74
2020-10-13 18:00:00 26.3 16 Este 40 Este 0 -- -- 75
2020-10-13 17:00:00 27.4 12 Este 29 Este 0 -- -- 51
2020-10-13 16:00:00 24.7 14 Este 26 Sudeste 0 -- -- 74
2020-10-13 15:00:00 24.9 9 Este 24 Este 0 -- -- 68
2020-10-13 14:00:00 26.1 9 Este 40 Sudeste 0 -- -- 61
2020-10-13 13:00:00 26.6 15 Este 29 Este 0 -- -- 53
2020-10-13 12:00:00 26.6 10 Este 22 Nordeste 0 -- -- 55
2020-10-13 11:00:00 25.7 6 Este 30 Sur 0 -- -- 65
2020-10-13 10:00:00 26.2 13 Sur 39 Sudoeste 0 -- -- 60
2020-10-13 09:00:00 25.1 15 Este 34 Este 0 -- -- 57
2020-10-13 08:00:00 24.4 15 Este 30 Nordeste 0 -- -- 62
2020-10-13 07:00:00 24.3 14 Este 27 Nordeste 0 -- -- 63
2020-10-13 06:00:00 24.3 5 Nordeste 18 Nordeste 0 -- -- 56
2020-10-13 05:00:00 24.2 2 Sudoeste 14 Oeste 0 -- -- 65
2020-10-13 04:00:00 25.1 6 Oeste 29 Este 0 -- -- 62
2020-10-13 03:00:00 26.5 7 Este 33 Este 0 -- -- 44
2020-10-13 02:00:00 26.9 13 Este 32 Este 0 -- -- 49
2020-10-13 01:00:00 27.2 13 Este 31 Este 0 -- -- 47
2020-10-13 00:00:00 -- -- -- -- -- -- -- -- --
2020-10-12 23:00:00 27.7 10 Este 17 Este 0 -- -- 46
2020-10-12 22:00:00 28.4 9 Este 17 Este 0 -- -- 47
2020-10-12 21:00:00 27.7 8 Este 20 Este 0 -- -- 54
2020-10-12 20:00:00 28 8 Este 21 Este 0 -- -- 58
2020-10-12 19:00:00 30 10 Este 27 Este 0 -- -- 48
2020-10-12 18:00:00 32 12 Este 33 Este 0 -- -- 40
2020-10-12 17:00:00 -- -- -- -- -- -- -- -- --
2020-10-12 16:00:00 35.6 14 Este 35 Este 0 -- -- 21
2020-10-12 15:00:00 35.4 14 Este 35 Este 0 -- -- 21
2020-10-12 14:00:00 33.8 16 Este 33 Este 0 -- -- 28
2020-10-12 13:00:00 34.7 16 Este 36 Nordeste 0 -- -- 24
2020-10-12 12:00:00 32.5 15 Este 36 Este 0 -- -- 29
2020-10-12 11:00:00 32.2 15 Este 36 Nordeste 0 -- -- 30
2020-10-12 10:00:00 31.5 15 Este 36 Este 0 -- -- 26
2020-10-12 09:00:00 23.4 6 Este 14 Este 0 -- -- 64
2020-10-12 08:00:00 21.3 3 Noroeste 11 Sudoeste 0 -- -- 83
2020-10-12 07:00:00 21.6 5 Noroeste 9 Noroeste 0 -- -- 84
2020-10-12 06:00:00 21.8 3 Oeste 9 Noroeste 0 -- -- 88
2020-10-12 05:00:00 22.1 6 Oeste 11 Oeste 0 -- -- 91
2020-10-12 04:00:00 22.2 5 Oeste 8 Oeste 0 -- -- 90
2020-10-12 03:00:00 -- -- -- -- -- -- -- -- --
2020-10-12 02:00:00 22.5 5 Oeste 9 Oeste 0 -- -- 86
2020-10-12 01:00:00 22.9 0 Calma 10 Noroeste 0 -- -- 86
2020-10-12 00:00:00 23 7 Noroeste 13 Oeste 0 -- -- 85
2020-10-11 23:00:00 23.4 2 Norte 10 Sur 0 -- -- 82
2020-10-11 22:00:00 23.7 3 Oeste 9 Sudoeste 0 -- -- 80
2020-10-11 21:00:00 24 6 Sudoeste 10 Oeste 0 -- -- 81
2020-10-11 20:00:00 -- -- -- -- -- -- -- -- --
2020-10-11 19:00:00 -- -- -- -- -- -- -- -- --
2020-10-11 18:00:00 27.2 9 Sudoeste 15 Oeste 0 -- -- 67
2020-10-11 17:00:00 27.8 10 Sudoeste 17 Sudoeste 0 -- -- 64
2020-10-11 16:00:00 27.6 10 Oeste 20 Oeste 0 -- -- 64
2020-10-11 15:00:00 27.9 9 Sudoeste 17 Oeste 0 -- -- 63
2020-10-11 14:00:00 27.1 11 Oeste 18 Sudoeste 0 -- -- 66
2020-10-11 13:00:00 26.7 9 Sudoeste 15 Sudoeste 0 -- -- 67
2020-10-11 12:00:00 26 10 Sudoeste 16 Oeste 0 -- -- 69
2020-10-11 11:00:00 24.6 6 Oeste 11 Oeste 0 -- -- 70
2020-10-11 10:00:00 23.8 3 Sudoeste 8 Este 0 -- -- 76
2020-10-11 09:00:00 21.9 2 Nordeste 5 Norte 0 -- -- 81
2020-10-11 08:00:00 21.1 2 Sudeste 5 Oeste 0 -- -- 84
2020-10-11 07:00:00 21.5 0 Calma 5 Noroeste 0 -- -- 83
2020-10-11 06:00:00 21.9 0 Calma 9 Este 0 -- -- 82
2020-10-11 05:00:00 21.7 2 Nordeste 6 Nordeste 0 -- -- 84
2020-10-11 04:00:00 21.9 3 Nordeste 6 Oeste 0 -- -- 82
2020-10-11 03:00:00 22 0 Calma 6 Oeste 0 -- -- 82
2020-10-11 02:00:00 22.3 4 Oeste 8 Noroeste 0 -- -- 81
2020-10-11 01:00:00 22.6 2 Sudeste 8 Sur 0 -- -- 78
2020-10-11 00:00:00 22.8 4 Sur 9 Sudoeste 0 -- -- 76
2020-10-10 23:00:00 23.1 4 Sur 8 Sur 0 -- -- 79
2020-10-10 22:00:00 23.5 3 Oeste 9 Oeste 0 -- -- 77
2020-10-10 21:00:00 23.6 6 Oeste 12 Oeste 0 -- -- 77
2020-10-10 20:00:00 24.1 8 Oeste 14 Sudoeste 0 -- -- 73
2020-10-10 19:00:00 25.5 7 Sudoeste 16 Sudoeste 0 -- -- 69
2020-10-10 18:00:00 26.5 11 Sudoeste 22 Sudoeste 0 -- -- 63
2020-10-10 17:00:00 26.9 12 Oeste 21 Oeste 0 -- -- 61
2020-10-10 16:00:00 27 10 Oeste 23 Sudoeste 0 -- -- 63
2020-10-10 15:00:00 26.7 13 Sudoeste 24 Oeste 0 -- -- 66
2020-10-10 14:00:00 26.6 13 Oeste 24 Oeste 0 -- -- 65
2020-10-10 13:00:00 26.5 13 Sudoeste 22 Sudoeste 0 -- -- 65
2020-10-10 12:00:00 25.9 9 Oeste 18 Oeste 0 -- -- 68
2020-10-10 11:00:00 25.6 5 Sudoeste 12 Sudeste 0 -- -- 65
2020-10-10 10:00:00 24.1 7 Este 11 Este 0 -- -- 68
2020-10-10 09:00:00 22.7 2 Este 8 Sudeste 0 -- -- 74
2020-10-10 08:00:00 21.9 6 Este 8 Este 0 -- -- 79
2020-10-10 07:00:00 22.2 4 Sur 8 Sudoeste 0 -- -- 78
2020-10-10 06:00:00 22.8 4 Nordeste 9 Este 0 -- -- 76
2020-10-10 05:00:00 22.7 3 Nordeste 12 Este 0 -- -- 74
2020-10-10 04:00:00 22.6 3 Nordeste 7 Este 0 -- -- 82
2020-10-10 03:00:00 22.7 3 Sur 8 Nordeste 0 -- -- 87
2020-10-10 02:00:00 22.7 2 Oeste 10 Oeste 0 -- -- 86
2020-10-10 01:00:00 22.7 6 Noroeste 9 Noroeste 0 -- -- 87
2020-10-10 00:00:00 22.9 4 Sudoeste 10 Oeste 0 -- -- 85
2020-10-09 23:00:00 23.2 6 Sudoeste 8 Oeste 0 -- -- 83
2020-10-09 22:00:00 23.4 5 Sudoeste 8 Sudoeste 0 -- -- 84
2020-10-09 21:00:00 23.8 5 Sudoeste 11 Sudoeste 0 -- -- 81
2020-10-09 20:00:00 24.2 6 Oeste 12 Sudoeste 0 -- -- 78
2020-10-09 19:00:00 25.1 9 Sudoeste 18 Sudoeste 0 -- -- 73
2020-10-09 18:00:00 26.7 9 Sudoeste 22 Sudoeste 0 -- -- 66
2020-10-09 17:00:00 27 13 Sudoeste 26 Sudoeste 0 -- -- 66
2020-10-09 16:00:00 27.2 16 Sudoeste 27 Sudoeste 0 -- -- 65
2020-10-09 15:00:00 27.2 12 Oeste 22 Sudoeste 0 -- -- 66
2020-10-09 14:00:00 27.1 10 Oeste 23 Sudoeste 0 -- -- 67
2020-10-09 13:00:00 26.5 12 Oeste 21 Sudoeste 0 -- -- 70
2020-10-09 12:00:00 26.4 12 Sudoeste 22 Sudoeste 0 -- -- 70
2020-10-09 11:00:00 25.7 11 Sudoeste 17 Sudoeste 0 -- -- 72
2020-10-09 10:00:00 24.8 4 Sur 9 Sudeste 0 -- -- 73
2020-10-09 09:00:00 22.8 6 Este 13 Este 0 -- -- 86
2020-10-09 08:00:00 21.7 3 Este 8 Noroeste 0 -- -- 88
2020-10-09 07:00:00 21.7 4 Oeste 7 Oeste 0 -- -- 88
2020-10-09 06:00:00 21.8 0 Calma 4 Nordeste 0 -- -- 88
2020-10-09 05:00:00 22 0 Calma 6 Sudeste 0 -- -- 87
2020-10-09 04:00:00 22.3 0 Calma 5 Sudeste 0 -- -- 87
2020-10-09 03:00:00 22.5 3 Sudeste 6 Sudeste 0 -- -- 86
2020-10-09 02:00:00 22.8 2 Oeste 9 Oeste 0 -- -- 85
2020-10-09 01:00:00 23 0 Calma 3 Sudoeste 0 -- -- 84
2020-10-09 00:00:00 23.2 0 Calma 8 Sudoeste 0 -- -- 84
2020-10-08 23:00:00 23.5 4 Sudoeste 9 Sudoeste 0 -- -- 84
2020-10-08 22:00:00 23.9 3 Sur 8 Sudoeste 0 -- -- 81
2020-10-08 21:00:00 24.4 3 Sur 8 Sudeste 0 -- -- 76
2020-10-08 20:00:00 25.4 3 Sur 11 Sudoeste 0 -- -- 68
2020-10-08 19:00:00 26.4 8 Sudoeste 15 Sudoeste 0 -- -- 62
2020-10-08 18:00:00 27.5 9 Sudoeste 18 Sudoeste 0 -- -- 60
2020-10-08 17:00:00 28.1 8 Sudoeste 17 Sudoeste 0 -- -- 59
2020-10-08 16:00:00 28.3 9 Sudoeste 25 Sudoeste 0 -- -- 58
2020-10-08 15:00:00 27.7 18 Sudoeste 31 Este 0 -- -- 59
2020-10-08 14:00:00 26 17 Este 35 Este 0 -- -- 62
2020-10-08 13:00:00 26.7 10 Sur 27 Sudoeste 0 -- -- 63
2020-10-08 12:00:00 26.8 9 Sudoeste 18 Sudoeste 0 -- -- 67
2020-10-08 11:00:00 25.7 8 Sudoeste 14 Sudoeste 0 -- -- 70
2020-10-08 10:00:00 24.4 5 Sur 9 Oeste 0 -- -- 72
2020-10-08 09:00:00 22.2 5 Oeste 9 Oeste 0 -- -- 80
2020-10-08 08:00:00 21.4 0 Calma 4 Noroeste 0 -- -- 85
2020-10-08 07:00:00 21.6 2 Oeste 4 Noroeste 0 -- -- 87
2020-10-08 06:00:00 21.7 0 Calma 4 Oeste 0 -- -- 87
2020-10-08 05:00:00 21.8 0 Calma 4 Nordeste 0 -- -- 87
2020-10-08 04:00:00 22 0 Calma 4 Noroeste 0 -- -- 86
2020-10-08 03:00:00 22.3 0 Calma 6 Este 0 -- -- 85
2020-10-08 02:00:00 22.4 2 Sudeste 5 Sudeste 0 -- -- 85
2020-10-08 01:00:00 22.7 0 Calma 4 Oeste 0 -- -- 83
2020-10-08 00:00:00 22.9 3 Oeste 5 Sur 0 -- -- 83
2020-10-07 23:00:00 23 5 Sudeste 10 Sudeste 0 -- -- 84
2020-10-07 22:00:00 23.4 2 Sur 7 Sudoeste 0 -- -- 82
2020-10-07 21:00:00 23.8 6 Sudoeste 10 Sudoeste 0 -- -- 78
2020-10-07 20:00:00 24.5 5 Sudoeste 10 Sudoeste 0 -- -- 75
2020-10-07 19:00:00 25.3 6 Sudoeste 13 Sur 0 -- -- 72
2020-10-07 18:00:00 26.9 8 Oeste 17 Oeste 0 -- -- 59
2020-10-07 17:00:00 24.9 9 Este 20 Este 0 -- -- 73
2020-10-07 16:00:00 24.5 13 Este 22 Este 0 -- -- 77
2020-10-07 15:00:00 24.9 13 Este 21 Este 0 -- -- 76
2020-10-07 14:00:00 24.9 12 Este 21 Este 0 -- -- 76
2020-10-07 13:00:00 24.2 12 Sudeste 19 Sudeste 0 -- -- 77
2020-10-07 12:00:00 24.6 10 Sur 19 Sudeste 0 -- -- 75
2020-10-07 11:00:00 25 3 Noroeste 14 Sudoeste 0 -- -- 69
2020-10-07 10:00:00 23.5 3 Nordeste 10 Este 0 -- -- 74
2020-10-07 09:00:00 22.1 3 Norte 12 Este 0 -- -- 70
2020-10-07 08:00:00 21.4 4 Este 19 Este 0 -- -- 74
2020-10-07 07:00:00 21.6 6 Este 16 Nordeste 0 -- -- 73
2020-10-07 06:00:00 21.3 4 Este 14 Este 0 -- -- 80
2020-10-07 05:00:00 21.5 8 Nordeste 22 Este 0 -- -- 81
2020-10-07 04:00:00 21.5 8 Este 20 Este 0 -- -- 82
2020-10-07 03:00:00 21.6 6 Este 13 Este 0 -- -- 81
2020-10-07 02:00:00 21.9 2 Nordeste 13 Este 0 -- -- 78
2020-10-07 01:00:00 22.3 6 Nordeste 12 Este 0 -- -- 77
2020-10-07 00:00:00 22.5 5 Nordeste 13 Este 0 -- -- 77
2020-10-06 23:00:00 22.3 5 Nordeste 19 Este 0 -- -- 77
2020-10-06 22:00:00 22.5 9 Este 18 Este 0 -- -- 76
2020-10-06 21:00:00 22.9 4 Sur 10 Sudoeste 0 -- -- 80
2020-10-06 20:00:00 23.2 6 Sudoeste 15 Oeste 0 -- -- 79
2020-10-06 19:00:00 24.1 3 Nordeste 21 Este 0 -- -- 70
2020-10-06 18:00:00 24 9 Este 32 Este 0 -- -- 71
2020-10-06 17:00:00 23.9 13 Este 25 Este 0 -- -- 73
2020-10-06 16:00:00 23.9 11 Sudoeste 26 Este 0 -- -- 76
2020-10-06 15:00:00 23.6 13 Este 33 Este 0 -- -- 72
2020-10-06 14:00:00 23.9 11 Este 26 Este 0 -- -- 71
2020-10-06 13:00:00 23.5 8 Sudeste 19 Sudoeste 0 -- -- 75
2020-10-06 12:00:00 23.4 8 Sudoeste 14 Nordeste 0 -- -- 75
2020-10-06 11:00:00 23.2 4 Nordeste 12 Este 0 -- -- 71
2020-10-06 10:00:00 22.6 8 Este 15 Este 0 -- -- 72
2020-10-06 09:00:00 22 5 Este 25 Este 0 -- -- 73
2020-10-06 08:00:00 21.7 14 Nordeste 31 Nordeste 0 -- -- 76
2020-10-06 07:00:00 21.5 10 Nordeste 28 Este 0 -- -- 78
2020-10-06 06:00:00 21.7 13 Este 28 Este 0 -- -- 77
2020-10-06 05:00:00 22 12 Nordeste 27 Nordeste 0 -- -- 75
2020-10-06 04:00:00 22 12 Este 27 Nordeste 0 -- -- 75
2020-10-06 03:00:00 22.1 11 Este 26 Este 0 -- -- 78
2020-10-06 02:00:00 22.2 12 Este 27 Este 0 -- -- 78
2020-10-06 01:00:00 22.3 11 Nordeste 32 Este 0 -- -- 78
2020-10-06 00:00:00 22.5 11 Este 27 Este 0 -- -- 75
2020-10-05 23:00:00 22.6 15 Este 29 Este 0 -- -- 74
2020-10-05 22:00:00 22.6 15 Este 31 Este 0 -- -- 74
2020-10-05 21:00:00 22.8 11 Nordeste 28 Este 0 -- -- 67
2020-10-05 20:00:00 22.9 13 Este 33 Este 0 -- -- 68
2020-10-05 19:00:00 23.4 14 Este 38 Este 0 -- -- 68
2020-10-05 18:00:00 24 18 Este 41 Este 0 -- -- 63
2020-10-05 17:00:00 24.4 19 Este 44 Este 0 -- -- 65
2020-10-05 16:00:00 26 18 Este 41 Este 0 -- -- 56
2020-10-05 15:00:00 25.8 21 Este 44 Este 0 -- -- 58
2020-10-05 14:00:00 24.5 23 Este 47 Este 0 -- -- 66
2020-10-05 13:00:00 24.8 21 Este 48 Este 0 -- -- 67
2020-10-05 12:00:00 24.4 20 Este 43 Este 0 -- -- 64
2020-10-05 11:00:00 24.2 15 Este 38 Este 0 -- -- 71
2020-10-05 10:00:00 23.8 9 Nordeste 22 Este 0 -- -- 64
2020-10-05 09:00:00 22.5 3 Este 13 Nordeste 0 -- -- 67
2020-10-05 08:00:00 21.3 4 Nordeste 25 Este 0 -- -- 72
2020-10-05 07:00:00 22 15 Nordeste 32 Nordeste 0 -- -- 71
2020-10-05 06:00:00 22.1 15 Nordeste 31 Nordeste 0 -- -- 70
2020-10-05 05:00:00 22.2 10 Este 21 Nordeste 0 -- -- 66
2020-10-05 04:00:00 22.1 8 Este 18 Nordeste 0 -- -- 67
2020-10-05 03:00:00 22.1 9 Nordeste 22 Este 0 -- -- 66
2020-10-05 02:00:00 21.8 6 Nordeste 28 Este 0 -- -- 73
2020-10-05 01:00:00 22.3 14 Este 34 Este 0 -- -- 79
2020-10-05 00:00:00 22.8 9 Nordeste 28 Nordeste 0 -- -- 65
2020-10-04 23:00:00 23 14 Este 28 Este 0 -- -- 67
2020-10-04 22:00:00 23.2 12 Nordeste 31 Nordeste 0 -- -- 62
2020-10-04 21:00:00 23.7 4 Oeste 26 Este 0 -- -- 66
2020-10-04 20:00:00 24.7 10 Sudoeste 18 Sudoeste 0 -- -- 66
2020-10-04 19:00:00 25.3 9 Este 24 Este 0 -- -- 57
2020-10-04 18:00:00 26.3 8 Norte 17 Sudoeste 0 -- -- 62
2020-10-04 17:00:00 26.2 5 Este 26 Sudoeste 0 -- -- 63
2020-10-04 16:00:00 26.8 14 Sur 27 Sur 0 -- -- 64
2020-10-04 15:00:00 26.4 14 Sur 33 Este 0 -- -- 62
2020-10-04 14:00:00 25.7 13 Este 34 Sudeste 0 -- -- 65
2020-10-04 13:00:00 24.5 17 Este 40 Este 0 -- -- 72
2020-10-04 12:00:00 23 14 Este 27 Este 1.8 -- -- 85
2020-10-04 11:00:00 24.1 10 Oeste 19 Sudoeste 0 -- -- 75
2020-10-04 10:00:00 24 11 Oeste 21 Oeste 0 -- -- 75
2020-10-04 09:00:00 22.6 6 Norte 11 Noroeste 0 -- -- 80
2020-10-04 08:00:00 21.4 5 Noroeste 10 Oeste 0 -- -- 83
2020-10-04 07:00:00 21.7 2 Noroeste 8 Noroeste 0 -- -- 83
2020-10-04 06:00:00 21.9 4 Noroeste 9 Noroeste 0 -- -- 84
2020-10-04 05:00:00 22.1 6 Noroeste 9 Noroeste 0 -- -- 84
2020-10-04 04:00:00 22.2 6 Noroeste 15 Noroeste 0 -- -- 85
2020-10-04 03:00:00 22.3 6 Oeste 10 Noroeste 0 -- -- 85
2020-10-04 02:00:00 22.5 5 Oeste 8 Oeste 0 -- -- 82
2020-10-04 01:00:00 22.7 3 Sudoeste 12 Noroeste 0 -- -- 81
2020-10-04 00:00:00 23 9 Noroeste 13 Oeste 0 -- -- 81
2020-10-03 23:00:00 23.2 4 Oeste 13 Oeste 0 -- -- 79
2020-10-03 22:00:00 23.5 5 Oeste 10 Oeste 0 -- -- 79
2020-10-03 21:00:00 23.7 4 Sudoeste 9 Sudoeste 0 -- -- 76
2020-10-03 20:00:00 24.2 6 Sudoeste 16 Sudoeste 0 -- -- 71
2020-10-03 19:00:00 25 10 Sudoeste 23 Sudoeste 0 -- -- 67
2020-10-03 18:00:00 26.1 15 Sudoeste 25 Sudoeste 0 -- -- 62
2020-10-03 17:00:00 26.9 16 Sudoeste 28 Sudoeste 0 -- -- 59
2020-10-03 16:00:00 27.4 14 Sudoeste 26 Sudoeste 0 -- -- 56
2020-10-03 15:00:00 27.1 14 Sudoeste 26 Sudoeste 0 -- -- 56
2020-10-03 14:00:00 26.8 15 Sudoeste 24 Oeste 0 -- -- 56
2020-10-03 13:00:00 26.3 13 Sudoeste 27 Oeste 0 -- -- 59
2020-10-03 12:00:00 26 16 Sudoeste 24 Sudoeste 0 -- -- 59
2020-10-03 11:00:00 25.3 10 Sudoeste 17 Oeste 0 -- -- 61
2020-10-03 10:00:00 24.1 3 Sudoeste 10 Noroeste 0 -- -- 66
2020-10-03 09:00:00 21.7 6 Noroeste 12 Noroeste 0 -- -- 72
2020-10-03 08:00:00 20.9 6 Norte 14 Norte 0 -- -- 74
2020-10-03 07:00:00 20.9 7 Noroeste 12 Norte 0 -- -- 74
2020-10-03 06:00:00 21.2 4 Norte 10 Norte 0 -- -- 75
2020-10-03 05:00:00 21.3 6 Noroeste 10 Noroeste 0 -- -- 74
2020-10-03 04:00:00 21.7 5 Norte 8 Noroeste 0 -- -- 73
2020-10-03 03:00:00 21.9 5 Norte 11 Noroeste 0 -- -- 74
2020-10-03 02:00:00 22.2 6 Noroeste 9 Oeste 0 -- -- 73
2020-10-03 01:00:00 22.1 0 Calma 8 Noroeste 0 -- -- 73
2020-10-03 00:00:00 22.4 6 Oeste 8 Oeste 0 -- -- 74
2020-10-02 23:00:00 22.8 5 Oeste 14 Noroeste 0 -- -- 73
2020-10-02 22:00:00 23.1 8 Oeste 13 Oeste 0 -- -- 71
2020-10-02 21:00:00 23.3 3 Sur 15 Oeste 0 -- -- 71
2020-10-02 20:00:00 23.8 8 Sudoeste 19 Sudoeste 0 -- -- 72
2020-10-02 19:00:00 24.6 12 Sudoeste 23 Sudoeste 0 -- -- 65
2020-10-02 18:00:00 25.7 12 Sudoeste 26 Sudoeste 0 -- -- 61
2020-10-02 17:00:00 26.5 15 Sudoeste 29 Sudoeste 0 -- -- 57
2020-10-02 16:00:00 27.1 15 Sudoeste 26 Sudoeste 0 -- -- 53
2020-10-02 15:00:00 26.8 15 Sudoeste 31 Sudoeste 0 -- -- 52
2020-10-02 14:00:00 27.2 14 Sudoeste 27 Sudoeste 0 -- -- 51
2020-10-02 13:00:00 26.7 12 Oeste 23 Oeste 0 -- -- 54
2020-10-02 12:00:00 25.8 9 Oeste 21 Sur 0 -- -- 52
2020-10-02 11:00:00 24.8 8 Sur 14 Sudeste 0 -- -- 58
2020-10-02 10:00:00 23 2 Sur 7 Oeste 0 -- -- 69
2020-10-02 09:00:00 21.9 3 Nordeste 8 Norte 0 -- -- 70
2020-10-02 08:00:00 21 3 Nordeste 9 Este 0 -- -- 72
2020-10-02 07:00:00 21.4 3 Este 9 Este 0 -- -- 72
2020-10-02 06:00:00 21.7 3 Nordeste 5 Norte 0 -- -- 76
2020-10-02 05:00:00 22 2 Norte 5 Noroeste 0 -- -- 75
2020-10-02 04:00:00 22 0 Calma 5 Sudeste 0 -- -- 74
2020-10-02 03:00:00 22.5 2 Sudeste 7 Este 0 -- -- 74
2020-10-02 02:00:00 22.7 4 Noroeste 8 Oeste 0 -- -- 73
2020-10-02 01:00:00 23 3 Norte 10 Sudeste 0 -- -- 73
2020-10-02 00:00:00 23.3 0 Calma 10 Oeste 0 -- -- 73
2020-10-01 23:00:00 23.4 3 Sur 8 Oeste 0 -- -- 71
2020-10-01 22:00:00 23.5 4 Oeste 10 Oeste 0 -- -- 70
2020-10-01 21:00:00 23.8 5 Sudoeste 13 Oeste 0 -- -- 72
2020-10-01 20:00:00 24.5 9 Oeste 17 Oeste 0 -- -- 63
2020-10-01 19:00:00 25.4 9 Oeste 27 Oeste 0 -- -- 62
2020-10-01 18:00:00 26.2 12 Sudoeste 23 Oeste 0 -- -- 61
2020-10-01 17:00:00 26.8 13 Sudoeste 24 Sudoeste 0 -- -- 59
2020-10-01 16:00:00 26.9 15 Sudoeste 27 Oeste 0 -- -- 60
2020-10-01 15:00:00 27.1 14 Sudoeste 26 Oeste 0 -- -- 56
2020-10-01 14:00:00 27 12 Sudoeste 22 Oeste 0 -- -- 55
2020-10-01 13:00:00 26.3 14 Oeste 23 Sudoeste 0 -- -- 58
2020-10-01 12:00:00 26.1 10 Sudoeste 19 Sudoeste 0 -- -- 59
2020-10-01 11:00:00 25.2 10 Sur 20 Sur 0 -- -- 63
2020-10-01 10:00:00 24.1 4 Este 8 Este 0 -- -- 68
2020-10-01 09:00:00 22.6 4 Norte 7 Sudeste 0 -- -- 72
2020-10-01 08:00:00 21.7 2 Sudeste 6 Este 0 -- -- 74
2020-10-01 07:00:00 22.1 0 Calma 5 Este 0 -- -- 73
2020-10-01 06:00:00 22.4 2 Noroeste 8 Noroeste 0 -- -- 75
2020-10-01 05:00:00 22.5 4 Noroeste 8 Oeste 0 -- -- 74
2020-10-01 04:00:00 22.4 2 Nordeste 6 Nordeste 0 -- -- 75
2020-10-01 03:00:00 22.3 2 Nordeste 6 Nordeste 0 -- -- 76
2020-10-01 02:00:00 22.5 2 Nordeste 9 Oeste 0 -- -- 74
2020-10-01 01:00:00 22.8 3 Oeste 8 Noroeste 0 -- -- 74
2020-10-01 00:00:00 22.9 4 Oeste 8 Sudeste 0 -- -- 74